createdAt,value
2022-10-02T00:02:04.015Z,51.38
2022-10-02T00:04:35.033Z,51.38
2022-10-02T00:07:06.479Z,51.39
2022-10-02T00:09:36.869Z,51.23
2022-10-02T00:12:08.789Z,51.17
2022-10-02T00:14:38.591Z,51.36
2022-10-02T00:17:06.543Z,51.30
2022-10-02T00:19:34.549Z,51.11
2022-10-02T00:22:16.364Z,51.13
2022-10-02T00:24:47.408Z,51.41
2022-10-02T00:27:29.957Z,51.08
2022-10-02T00:29:59.231Z,51.39
2022-10-02T00:32:33.141Z,51.18
2022-10-02T00:35:36.974Z,50.88
2022-10-02T00:38:12.047Z,51.19
2022-10-02T00:40:53.406Z,51.18
2022-10-02T00:43:27.172Z,51.09
2022-10-02T00:46:19.246Z,51.28
2022-10-02T00:48:50.464Z,50.90
2022-10-02T00:51:27.097Z,51.18
2022-10-02T00:54:00.795Z,51.03
2022-10-02T00:56:32.034Z,51.27
2022-10-02T00:59:14.973Z,51.26
2022-10-02T01:01:46.001Z,51.07
2022-10-02T01:04:15.650Z,51.25
2022-10-02T01:06:43.909Z,51.26
2022-10-02T01:09:13.361Z,51.23
2022-10-02T01:11:41.389Z,51.21
2022-10-02T01:14:09.443Z,51.22
2022-10-02T01:16:37.698Z,51.26
2022-10-02T01:19:06.289Z,51.34
2022-10-02T01:21:36.890Z,51.29
2022-10-02T01:24:07.862Z,51.04
2022-10-02T01:26:37.420Z,51.21
2022-10-02T01:29:05.769Z,51.34
2022-10-02T01:31:33.901Z,51.29
2022-10-02T01:34:01.821Z,51.04
2022-10-02T01:36:30.118Z,51.06
2022-10-02T01:38:58.051Z,51.08
2022-10-02T01:41:26.068Z,50.97
2022-10-02T01:43:56.895Z,50.95
2022-10-02T01:46:33.207Z,51.10
2022-10-02T01:49:11.632Z,51.00
2022-10-02T01:52:27.979Z,51.14
2022-10-02T01:55:04.204Z,50.84
2022-10-02T01:57:38.109Z,51.18
2022-10-02T02:00:09.321Z,51.19
2022-10-02T02:02:42.583Z,51.32
2022-10-02T02:05:11.483Z,51.46
2022-10-02T02:07:44.165Z,51.09
2022-10-02T02:10:15.064Z,51.28
2022-10-02T02:12:44.282Z,51.16
2022-10-02T02:15:16.265Z,51.09
2022-10-02T02:17:48.015Z,51.37
2022-10-02T02:20:17.175Z,51.15
2022-10-02T02:22:45.779Z,51.20
2022-10-02T02:25:15.051Z,51.14
2022-10-02T02:27:44.286Z,51.20
2022-10-02T02:30:14.585Z,50.96
2022-10-02T02:32:44.494Z,51.32
2022-10-02T02:35:15.535Z,51.11
2022-10-02T02:37:43.724Z,50.88
2022-10-02T02:40:13.480Z,50.87
2022-10-02T02:42:43.114Z,50.87
2022-10-02T02:45:12.149Z,50.75
2022-10-02T02:47:43.084Z,50.96
2022-10-02T02:50:12.957Z,50.90
2022-10-02T02:52:43.096Z,50.92
2022-10-02T02:55:12.134Z,50.89
2022-10-02T02:57:47.034Z,50.98
2022-10-02T03:00:15.534Z,50.97
2022-10-02T03:02:44.987Z,51.03
2022-10-02T03:05:14.636Z,50.82
2022-10-02T03:07:44.056Z,51.04
2022-10-02T03:10:15.220Z,51.01
2022-10-02T03:12:49.689Z,50.95
2022-10-02T03:15:26.619Z,51.22
2022-10-02T03:18:14.197Z,51.13
2022-10-02T03:20:43.716Z,51.20
2022-10-02T03:23:15.840Z,51.16
2022-10-02T03:25:46.442Z,50.91
2022-10-02T03:28:27.325Z,50.92
2022-10-02T03:30:59.937Z,51.04
2022-10-02T03:33:29.269Z,50.81
2022-10-02T03:35:57.228Z,51.03
2022-10-02T03:38:25.410Z,50.57
2022-10-02T03:40:58.115Z,50.96
2022-10-02T03:43:26.979Z,50.62
2022-10-02T03:45:54.895Z,50.90
2022-10-02T03:48:22.864Z,50.63
2022-10-02T03:50:52.168Z,50.69
2022-10-02T03:53:21.052Z,50.70
2022-10-02T03:55:51.657Z,50.63
2022-10-02T03:58:19.762Z,50.60
2022-10-02T04:00:52.146Z,50.55
2022-10-02T04:03:22.344Z,50.67
2022-10-02T04:05:53.625Z,50.64
2022-10-02T04:08:23.757Z,50.60
2022-10-02T04:10:53.562Z,50.47
2022-10-02T04:13:25.429Z,50.60
2022-10-02T04:15:58.735Z,50.75
2022-10-02T04:18:28.107Z,50.66
2022-10-02T04:20:59.605Z,50.78
2022-10-02T04:23:29.107Z,50.72
2022-10-02T04:26:01.444Z,50.89
2022-10-02T04:28:32.097Z,50.99
2022-10-02T04:31:01.480Z,50.79
2022-10-02T04:33:29.463Z,50.87
2022-10-02T04:36:03.827Z,50.55
2022-10-02T04:38:59.599Z,50.57
2022-10-02T04:41:40.967Z,50.77
2022-10-02T04:44:15.623Z,50.59
2022-10-02T04:46:47.195Z,50.69
2022-10-02T04:49:42.390Z,50.53
2022-10-02T04:52:32.547Z,50.77
2022-10-02T04:55:19.139Z,50.88
2022-10-02T04:57:55.206Z,51.00
2022-10-02T05:00:23.178Z,50.66
2022-10-02T05:03:00.614Z,50.91
2022-10-02T05:05:35.427Z,51.13
2022-10-02T05:08:23.512Z,50.80
2022-10-02T05:11:01.029Z,50.92
2022-10-02T05:13:41.176Z,50.86
2022-10-02T05:16:21.669Z,50.88
2022-10-02T05:18:57.615Z,51.07
2022-10-02T05:21:37.302Z,51.08
2022-10-02T05:24:15.533Z,51.14
2022-10-02T05:26:51.415Z,51.27
2022-10-02T05:29:47.968Z,51.11
2022-10-02T05:32:25.685Z,50.91
2022-10-02T05:35:05.392Z,50.86
2022-10-02T05:37:46.957Z,50.76
2022-10-02T05:40:19.595Z,50.75
2022-10-02T05:42:50.054Z,50.64
2022-10-02T05:45:23.410Z,50.53
2022-10-02T05:47:51.794Z,50.58
2022-10-02T05:50:20.076Z,50.60
2022-10-02T05:52:54.293Z,50.29
2022-10-02T05:55:26.267Z,50.35
2022-10-02T05:57:56.331Z,50.12
2022-10-02T06:00:29.727Z,50.15
2022-10-02T06:03:02.706Z,50.06
2022-10-02T06:05:35.235Z,50.26
2022-10-02T06:08:04.137Z,49.85
2022-10-02T06:10:35.722Z,49.84
2022-10-02T06:13:08.613Z,50.05
2022-10-02T06:15:39.935Z,50.16
2022-10-02T06:18:09.037Z,50.36
2022-10-02T06:20:39.068Z,50.39
2022-10-02T06:23:09.318Z,50.39
2022-10-02T06:25:41.042Z,50.08
2022-10-02T06:28:11.313Z,49.94
2022-10-02T06:30:41.271Z,50.22
2022-10-02T06:33:12.981Z,50.05
2022-10-02T06:35:48.869Z,49.84
2022-10-02T06:38:23.383Z,49.52
2022-10-02T06:40:56.743Z,49.52
2022-10-02T06:44:09.839Z,49.45
2022-10-02T06:46:41.388Z,49.08
2022-10-02T06:49:12.636Z,49.35
2022-10-02T06:51:47.160Z,49.05
2022-10-02T06:54:21.042Z,49.08
2022-10-02T06:57:00.831Z,49.25
2022-10-02T06:59:37.301Z,49.17
2022-10-02T07:02:10.854Z,49.09
2022-10-02T07:04:46.024Z,48.90
2022-10-02T07:07:21.543Z,49.15
2022-10-02T07:09:59.271Z,49.54
2022-10-02T07:12:35.860Z,49.26
2022-10-02T07:15:19.873Z,49.38
2022-10-02T07:17:52.176Z,49.17
2022-10-02T07:20:37.122Z,49.30
2022-10-02T07:23:20.600Z,49.41
2022-10-02T07:26:00.153Z,49.25
2022-10-02T07:28:33.997Z,49.17
2022-10-02T07:31:07.116Z,49.09
2022-10-02T07:33:46.281Z,48.96
2022-10-02T07:36:15.147Z,48.85
2022-10-02T07:39:12.905Z,48.77
2022-10-02T07:42:21.972Z,48.67
2022-10-02T07:45:25.576Z,49.29
2022-10-02T07:48:09.493Z,48.81
2022-10-02T07:50:40.848Z,49.01
2022-10-02T07:53:12.316Z,49.02
2022-10-02T07:55:43.240Z,48.93
2022-10-02T07:58:12.369Z,48.57
2022-10-02T08:00:44.063Z,48.66
2022-10-02T08:03:14.361Z,48.69
2022-10-02T08:05:43.820Z,48.63
2022-10-02T08:08:13.625Z,48.50
2022-10-02T08:10:42.921Z,48.45
2022-10-02T08:13:14.746Z,48.51
2022-10-02T08:15:44.643Z,48.33
2022-10-02T08:18:35.870Z,48.58
2022-10-02T08:21:03.888Z,48.59
2022-10-02T08:23:33.981Z,48.45
2022-10-02T08:26:05.196Z,48.31
2022-10-02T08:28:36.719Z,48.40
2022-10-02T08:31:11.521Z,48.47
2022-10-02T08:33:39.489Z,48.55
2022-10-02T08:36:44.738Z,48.24
2022-10-02T08:39:22.886Z,48.26
2022-10-02T08:42:20.208Z,48.11
2022-10-02T08:45:08.735Z,48.10
2022-10-02T08:48:31.865Z,47.87
2022-10-02T08:51:24.044Z,47.90
2022-10-02T08:54:37.487Z,47.74
2022-10-02T09:21:42.470Z,48.00
2022-10-02T09:24:39.840Z,47.97
2022-10-02T09:27:41.082Z,47.60
2022-10-02T09:30:32.322Z,47.86
2022-10-02T09:33:46.189Z,47.75
2022-10-02T09:36:41.446Z,47.95
2022-10-02T09:39:39.168Z,47.89
2022-10-02T09:42:37.389Z,47.73
2022-10-02T09:45:59.532Z,47.77
2022-10-02T09:48:43.115Z,47.43
2022-10-02T09:51:57.203Z,47.55
2022-10-02T09:54:48.628Z,47.49
2022-10-02T09:57:54.639Z,47.23
2022-10-02T10:00:52.349Z,47.17
2022-10-02T10:03:43.814Z,47.30
2022-10-02T10:16:54.667Z,46.12
2022-10-02T10:20:04.075Z,46.33
2022-10-02T10:25:52.887Z,46.00
2022-10-02T10:28:46.234Z,46.02
2022-10-02T10:32:08.903Z,45.60
2022-10-02T10:35:24.281Z,45.87
2022-10-02T10:38:16.360Z,45.67
2022-10-02T10:40:50.392Z,45.76
2022-10-02T10:44:08.933Z,46.26
2022-10-02T10:46:46.325Z,45.68
2022-10-02T10:49:22.203Z,45.67
2022-10-02T10:51:54.198Z,45.50
2022-10-02T10:54:40.754Z,45.55
2022-10-02T10:57:14.210Z,45.08
2022-10-02T11:00:09.942Z,45.19
2022-10-02T11:02:59.547Z,45.55
2022-10-02T11:05:57.071Z,45.41
2022-10-02T11:09:01.037Z,45.16
2022-10-02T11:11:34.605Z,45.39
2022-10-02T11:14:13.685Z,45.05
2022-10-02T11:17:15.676Z,45.06
2022-10-02T11:19:52.925Z,45.11
2022-10-02T11:22:38.528Z,44.70
2022-10-02T11:25:30.822Z,45.26
2022-10-02T11:28:22.965Z,44.99
2022-10-02T11:30:55.308Z,44.85
2022-10-02T11:33:49.570Z,44.95
2022-10-02T11:36:43.223Z,44.68
2022-10-02T11:39:22.002Z,44.83
2022-10-02T11:42:10.670Z,44.91
2022-10-02T11:45:08.153Z,45.20
2022-10-02T11:48:36.166Z,45.20
2022-10-02T11:51:15.903Z,45.61
2022-10-02T11:53:53.736Z,45.85
2022-10-02T11:56:40.257Z,45.99
2022-10-02T11:59:19.186Z,45.96
2022-10-02T12:01:55.659Z,45.98
2022-10-02T12:04:34.866Z,45.81
2022-10-02T12:07:15.094Z,46.63
2022-10-02T12:09:50.857Z,46.28
2022-10-02T12:12:29.708Z,46.37
2022-10-02T12:15:00.485Z,47.01
2022-10-02T12:17:56.486Z,46.61
2022-10-02T12:20:46.991Z,46.71
2022-10-02T12:23:43.985Z,46.55
2022-10-02T12:26:34.859Z,46.39
2022-10-02T12:29:05.495Z,46.53
2022-10-02T12:31:35.074Z,46.54
2022-10-02T12:34:10.763Z,46.90
2022-10-02T12:36:49.551Z,46.83
2022-10-02T12:39:29.418Z,46.77
2022-10-02T12:42:28.010Z,46.84
2022-10-02T12:45:11.858Z,47.39
2022-10-02T12:48:20.199Z,46.70
2022-10-02T12:51:00.035Z,46.49
2022-10-02T12:54:10.230Z,46.59
2022-10-02T12:57:06.316Z,46.46
2022-10-02T12:59:37.321Z,46.65
2022-10-02T13:02:20.305Z,46.17
2022-10-02T13:05:21.106Z,46.58
2022-10-02T13:08:17.373Z,46.13
2022-10-02T13:10:48.134Z,46.03
2022-10-02T13:13:25.934Z,46.26
2022-10-02T13:15:56.674Z,45.73
2022-10-02T13:18:53.217Z,45.60
2022-10-02T13:21:22.412Z,45.23
2022-10-02T13:23:58.259Z,45.16
2022-10-02T13:26:31.282Z,45.13
2022-10-02T13:29:17.025Z,44.61
2022-10-02T13:31:53.965Z,44.66
2022-10-02T13:34:34.058Z,44.50
2022-10-02T13:37:12.197Z,44.54
2022-10-02T13:39:50.681Z,44.02
2022-10-02T13:42:25.559Z,43.48
2022-10-02T13:45:00.179Z,43.35
2022-10-02T13:47:44.118Z,42.69
2022-10-02T13:50:48.550Z,41.47
2022-10-02T13:53:33.673Z,41.20
2022-10-02T13:56:09.978Z,40.02
2022-10-02T13:58:47.293Z,41.70
2022-10-02T14:01:22.664Z,41.47
2022-10-02T14:04:05.193Z,41.59
2022-10-02T14:06:35.079Z,41.77
2022-10-02T14:09:18.486Z,41.67
2022-10-02T14:11:58.338Z,41.62
2022-10-02T14:14:38.309Z,41.66
2022-10-02T14:17:13.098Z,41.74
2022-10-02T14:20:06.202Z,40.95
2022-10-02T14:22:37.244Z,41.55
2022-10-02T14:25:23.577Z,41.09
2022-10-02T14:28:36.975Z,40.96
2022-10-02T14:31:26.776Z,40.56
2022-10-02T14:34:04.618Z,39.85
2022-10-02T14:36:33.751Z,39.77
2022-10-02T14:39:06.807Z,39.87
2022-10-02T14:41:56.827Z,38.86
2022-10-02T14:45:01.324Z,38.34
2022-10-02T14:47:46.333Z,37.01
2022-10-02T14:50:27.093Z,38.13
2022-10-02T14:53:27.875Z,36.42
2022-10-02T14:56:18.783Z,37.61
2022-10-02T14:58:53.495Z,37.93
2022-10-02T15:01:22.357Z,36.13
2022-10-02T15:04:23.361Z,36.47
2022-10-02T15:07:00.372Z,37.18
2022-10-02T15:09:31.765Z,35.64
2022-10-02T15:12:09.502Z,35.48
2022-10-02T15:14:41.362Z,36.07
2022-10-02T15:17:29.409Z,35.58
2022-10-02T15:20:05.260Z,34.23
2022-10-02T15:22:36.834Z,36.08
2022-10-02T15:25:17.975Z,35.20
2022-10-02T15:27:47.349Z,35.86
2022-10-02T15:30:19.730Z,35.76
2022-10-02T15:33:01.103Z,35.16
2022-10-02T15:35:37.105Z,35.42
2022-10-02T15:38:20.868Z,35.19
2022-10-02T15:40:55.389Z,36.03
2022-10-02T15:43:28.887Z,35.73
2022-10-02T15:46:02.348Z,36.50
2022-10-02T15:48:54.941Z,36.52
2022-10-02T15:51:39.237Z,37.15
2022-10-02T15:54:14.596Z,38.12
2022-10-02T15:57:14.822Z,38.54
2022-10-02T15:59:54.323Z,38.41
2022-10-02T16:02:51.221Z,38.46
2022-10-02T16:05:26.343Z,38.98
2022-10-02T16:08:21.212Z,39.90
2022-10-02T16:11:01.339Z,39.50
2022-10-02T16:13:43.508Z,40.16
2022-10-02T16:16:24.185Z,39.95
2022-10-02T16:18:59.377Z,40.40
2022-10-02T16:21:45.392Z,40.86
2022-10-02T16:24:33.474Z,40.85
2022-10-02T16:27:26.903Z,41.31
2022-10-02T16:30:12.653Z,41.79
2022-10-02T16:32:47.174Z,41.54
2022-10-02T16:35:18.539Z,42.00
2022-10-02T16:37:46.730Z,41.79
2022-10-02T16:40:25.639Z,42.88
2022-10-02T16:42:57.946Z,42.53
2022-10-02T16:45:36.918Z,42.76
2022-10-02T16:48:08.764Z,42.90
2022-10-02T16:50:48.356Z,42.85
2022-10-02T16:53:23.949Z,42.99
2022-10-02T16:56:09.134Z,43.20
2022-10-02T16:58:43.040Z,43.23
2022-10-02T17:01:24.629Z,43.28
2022-10-02T17:04:10.063Z,43.50
2022-10-02T17:06:41.445Z,43.42
2022-10-02T17:09:14.461Z,43.51
2022-10-02T17:11:49.309Z,43.25
2022-10-02T17:14:19.481Z,43.57
2022-10-02T17:16:54.044Z,43.45
2022-10-02T17:19:22.756Z,43.85
2022-10-02T17:21:53.656Z,43.46
2022-10-02T17:24:25.427Z,43.77
2022-10-02T17:26:57.807Z,43.74
2022-10-02T17:29:28.171Z,43.82
2022-10-02T17:32:00.360Z,43.60
2022-10-02T17:34:30.719Z,43.73
2022-10-02T17:37:07.762Z,43.89
2022-10-02T17:39:49.206Z,43.81
2022-10-02T17:42:24.222Z,43.76
2022-10-02T17:44:56.462Z,44.11
2022-10-02T17:47:45.591Z,44.13
2022-10-02T17:51:00.352Z,43.92
2022-10-02T17:53:54.079Z,43.87
2022-10-02T17:56:33.634Z,44.17
2022-10-02T17:59:30.630Z,44.27
2022-10-02T18:02:03.619Z,44.05
2022-10-02T18:04:37.517Z,44.64
2022-10-02T18:07:17.484Z,44.67
2022-10-02T18:09:51.079Z,43.79
2022-10-02T18:13:02.569Z,44.08
2022-10-02T18:15:40.889Z,44.31
2022-10-02T18:18:34.314Z,43.99
2022-10-02T18:21:14.012Z,44.21
2022-10-02T18:24:19.799Z,44.29
2022-10-02T18:27:00.415Z,44.05
2022-10-02T18:29:40.654Z,44.25
2022-10-02T18:32:37.566Z,44.29
2022-10-02T18:35:19.857Z,44.29
2022-10-02T18:38:06.823Z,44.55
2022-10-02T18:40:40.574Z,44.74
2022-10-02T18:43:31.034Z,44.77
2022-10-02T18:46:03.384Z,44.57
2022-10-02T18:48:41.520Z,44.63
2022-10-02T18:51:23.474Z,44.59
2022-10-02T18:54:01.094Z,44.74
2022-10-02T18:56:45.827Z,44.76
2022-10-02T18:59:19.745Z,44.63
2022-10-02T19:01:52.927Z,44.81
2022-10-02T19:04:36.961Z,44.54
2022-10-02T19:07:07.498Z,44.38
2022-10-02T19:09:36.278Z,44.20
2022-10-02T19:12:15.599Z,44.23
2022-10-02T19:14:45.926Z,44.21
2022-10-02T19:17:15.637Z,44.29
2022-10-02T19:19:45.172Z,44.22
2022-10-02T19:22:18.773Z,44.25
2022-10-02T19:24:48.588Z,44.08
2022-10-02T19:27:20.108Z,44.15
2022-10-02T19:29:48.730Z,43.92
2022-10-02T19:32:20.847Z,44.22
2022-10-02T19:34:51.034Z,43.93
2022-10-02T19:37:19.051Z,44.07
2022-10-02T19:39:53.542Z,44.10
2022-10-02T19:42:25.353Z,43.98
2022-10-02T19:44:59.580Z,44.15
2022-10-02T19:47:30.261Z,43.93
2022-10-02T19:50:01.233Z,43.95
2022-10-02T19:52:35.997Z,43.80
2022-10-02T19:55:11.446Z,43.94
2022-10-02T19:57:41.278Z,43.99
2022-10-02T20:00:16.610Z,44.20
2022-10-02T20:02:46.531Z,44.05
2022-10-02T20:05:22.389Z,44.18
2022-10-02T20:07:52.101Z,44.02
2022-10-02T20:10:23.085Z,44.09
2022-10-02T20:12:53.535Z,43.95
2022-10-02T20:15:45.597Z,43.83
2022-10-02T20:18:14.742Z,43.62
2022-10-02T20:20:45.867Z,43.66
2022-10-02T20:23:16.753Z,43.49
2022-10-02T20:25:46.268Z,43.55
2022-10-02T20:28:16.902Z,43.73
2022-10-02T20:30:47.036Z,43.62
2022-10-02T20:33:19.608Z,43.73
2022-10-02T20:35:51.158Z,43.51
2022-10-02T20:38:21.329Z,43.31
2022-10-02T20:40:53.217Z,43.58
2022-10-02T20:43:28.810Z,43.35
2022-10-02T20:46:07.054Z,43.45
2022-10-02T20:49:09.740Z,43.20
2022-10-02T20:52:01.911Z,43.22
2022-10-02T20:54:41.329Z,43.21
2022-10-02T20:57:59.176Z,43.07
2022-10-02T21:00:22.820Z,43.31
2022-10-02T21:03:24.210Z,42.69
2022-10-02T21:06:29.927Z,42.83
2022-10-02T21:09:04.956Z,42.75
2022-10-02T21:11:46.929Z,42.98
2022-10-02T21:15:05.589Z,42.96
2022-10-02T21:17:50.070Z,43.21
2022-10-02T21:20:50.216Z,43.41
2022-10-02T21:23:47.614Z,42.87
2022-10-02T21:26:31.888Z,43.19
2022-10-02T21:29:24.172Z,43.08
2022-10-02T21:32:28.870Z,42.88
2022-10-02T21:35:07.070Z,42.97
2022-10-02T21:37:39.874Z,42.97
2022-10-02T21:40:21.908Z,43.10
2022-10-02T21:43:03.912Z,43.01
2022-10-02T21:45:56.663Z,42.74
2022-10-02T21:48:51.049Z,42.88
2022-10-02T21:52:04.607Z,42.70
2022-10-02T21:55:08.105Z,42.77
2022-10-02T21:58:09.101Z,42.75
2022-10-02T22:00:41.006Z,42.87
2022-10-02T22:03:35.131Z,42.96
2022-10-02T22:06:37.271Z,43.41
2022-10-02T22:09:17.212Z,43.25
2022-10-02T22:11:52.728Z,43.19
2022-10-02T22:14:28.114Z,43.32
2022-10-02T22:16:59.987Z,43.41
2022-10-02T22:19:36.313Z,43.44
2022-10-02T22:22:18.885Z,43.52
2022-10-02T22:25:04.784Z,43.59
2022-10-02T22:27:59.074Z,43.79
2022-10-02T22:30:29.343Z,43.72
2022-10-02T22:33:21.243Z,43.64
2022-10-02T22:36:22.386Z,43.79
2022-10-02T22:38:51.570Z,43.37
2022-10-02T22:41:22.756Z,43.43
2022-10-02T22:43:51.820Z,43.60
2022-10-02T22:46:27.209Z,43.77
2022-10-02T22:48:57.998Z,43.66
2022-10-02T22:51:28.228Z,43.67
2022-10-02T22:53:59.798Z,43.65
2022-10-02T22:56:30.627Z,43.79
2022-10-02T22:59:03.362Z,43.74
2022-10-02T23:01:39.073Z,43.58
2022-10-02T23:04:09.282Z,43.60
2022-10-02T23:06:42.021Z,43.54
2022-10-02T23:09:13.547Z,43.48
2022-10-02T23:11:44.171Z,43.26
2022-10-02T23:14:18.644Z,43.50
2022-10-02T23:16:49.757Z,43.41
2022-10-02T23:19:23.152Z,43.31
2022-10-02T23:21:53.003Z,43.51
2022-10-02T23:24:28.478Z,43.45
2022-10-02T23:26:58.153Z,43.24
2022-10-02T23:29:28.874Z,43.47
2022-10-02T23:32:00.750Z,43.55
2022-10-02T23:34:36.223Z,43.30
2022-10-02T23:37:07.137Z,43.44
2022-10-02T23:39:37.855Z,43.48
2022-10-02T23:42:06.875Z,43.47
2022-10-02T23:44:38.408Z,43.53
2022-10-02T23:47:19.485Z,43.90
2022-10-02T23:49:49.368Z,43.70
2022-10-02T23:52:47.318Z,43.55
2022-10-02T23:55:30.041Z,43.59
2022-10-02T23:58:08.326Z,43.73
